createdAt,value
2018-08-16T00:01:25.675Z,8.73
2018-08-16T00:03:54.235Z,6.97
2018-08-16T00:06:22.691Z,5.40
2018-08-16T00:08:51.069Z,5.77
2018-08-16T00:11:19.428Z,5.20
2018-08-16T00:13:47.843Z,5.90
2018-08-16T00:16:16.231Z,5.43
2018-08-16T00:18:44.671Z,6.60
2018-08-16T00:21:13.099Z,5.17
2018-08-16T00:23:41.439Z,6.40
2018-08-16T00:26:09.798Z,5.63
2018-08-16T00:28:38.143Z,5.40
2018-08-16T00:31:06.557Z,5.17
2018-08-16T00:33:34.890Z,5.07
2018-08-16T00:36:03.295Z,4.93
2018-08-16T00:38:31.764Z,5.10
2018-08-16T00:41:00.102Z,5.53
2018-08-16T00:43:28.495Z,4.83
2018-08-16T00:45:57.037Z,5.33
2018-08-16T00:48:25.583Z,4.40
2018-08-16T00:50:53.983Z,4.40
2018-08-16T00:53:22.356Z,4.40
2018-08-16T00:55:50.691Z,4.47
2018-08-16T00:58:19.013Z,4.40
2018-08-16T01:00:47.351Z,4.47
2018-08-16T01:03:15.819Z,4.20
2018-08-16T01:05:44.218Z,4.57
2018-08-16T01:08:12.543Z,4.67
2018-08-16T01:10:40.864Z,4.40
2018-08-16T01:13:09.146Z,4.87
2018-08-16T01:15:37.524Z,5.20
2018-08-16T01:18:05.844Z,4.03
2018-08-16T01:20:34.201Z,5.13
2018-08-16T01:23:02.595Z,4.37
2018-08-16T01:25:31.123Z,5.20
2018-08-16T01:27:59.543Z,4.63
2018-08-16T01:30:27.988Z,4.30
2018-08-16T01:32:56.429Z,7.37
2018-08-16T01:35:24.812Z,4.87
2018-08-16T01:37:53.127Z,4.00
2018-08-16T01:40:21.446Z,4.40
2018-08-16T01:42:49.783Z,4.50
2018-08-16T01:45:18.127Z,4.90
2018-08-16T01:47:46.555Z,4.47
2018-08-16T01:50:14.935Z,4.33
2018-08-16T01:52:43.914Z,4.53
2018-08-16T01:55:12.375Z,4.40
2018-08-16T01:57:40.819Z,6.77
2018-08-16T02:00:10.276Z,4.70
2018-08-16T02:02:38.875Z,4.23
2018-08-16T02:05:07.656Z,4.37
2018-08-16T02:07:35.991Z,4.67
2018-08-16T02:10:04.788Z,4.33
2018-08-16T02:12:33.139Z,4.47
2018-08-16T02:15:01.499Z,4.37
2018-08-16T02:17:29.881Z,4.30
2018-08-16T02:19:58.232Z,4.30
2018-08-16T02:22:26.693Z,4.33
2018-08-16T02:24:55.052Z,4.70
2018-08-16T02:27:23.369Z,4.80
2018-08-16T02:29:51.799Z,4.13
2018-08-16T02:32:20.216Z,3.97
2018-08-16T02:34:48.549Z,4.00
2018-08-16T02:37:16.904Z,4.60
2018-08-16T02:39:45.298Z,4.87
2018-08-16T02:42:13.684Z,6.03
2018-08-16T02:44:42.165Z,4.50
2018-08-16T02:47:10.561Z,4.37
2018-08-16T02:49:38.872Z,4.23
2018-08-16T02:52:07.283Z,4.17
2018-08-16T02:54:35.595Z,6.77
2018-08-16T02:57:04.096Z,4.43
2018-08-16T02:59:32.529Z,4.27
2018-08-16T03:02:00.887Z,4.50
2018-08-16T03:04:29.237Z,4.10
2018-08-16T03:06:57.621Z,4.83
2018-08-16T03:09:25.965Z,4.40
2018-08-16T03:11:54.434Z,4.23
2018-08-16T03:14:22.735Z,4.87
2018-08-16T03:16:51.067Z,4.10
2018-08-16T03:19:19.471Z,4.13
2018-08-16T03:21:48.170Z,3.60
2018-08-16T03:24:16.500Z,4.20
2018-08-16T03:26:44.808Z,4.00
2018-08-16T03:29:13.291Z,4.40
2018-08-16T03:31:41.687Z,8.73
2018-08-16T03:34:10.019Z,4.07
2018-08-16T03:36:38.451Z,5.00
2018-08-16T03:39:08.302Z,6.33
2018-08-16T03:41:36.872Z,3.80
2018-08-16T03:44:05.843Z,4.33
2018-08-16T03:46:34.203Z,4.30
2018-08-16T03:49:02.553Z,4.60
2018-08-16T03:51:30.956Z,4.40
2018-08-16T03:53:59.278Z,4.40
2018-08-16T03:56:27.668Z,4.60
2018-08-16T03:58:56.009Z,9.83
2018-08-16T04:01:24.342Z,5.37
2018-08-16T04:03:52.836Z,4.43
2018-08-16T04:06:21.156Z,5.67
2018-08-16T04:08:49.460Z,4.07
2018-08-16T04:11:17.791Z,4.13
2018-08-16T04:13:46.134Z,3.90
2018-08-16T04:16:14.484Z,4.27
2018-08-16T04:18:42.856Z,10.07
2018-08-16T04:21:11.155Z,5.03
2018-08-16T04:23:39.486Z,11.43
2018-08-16T04:26:07.901Z,4.80
2018-08-16T04:28:36.218Z,4.30
2018-08-16T04:31:04.503Z,4.97
2018-08-16T04:33:32.798Z,4.60
2018-08-16T04:36:01.139Z,4.07
2018-08-16T04:38:29.556Z,4.90
2018-08-16T04:40:57.883Z,5.37
2018-08-16T04:43:26.335Z,6.97
2018-08-16T04:45:54.649Z,5.87
2018-08-16T04:48:23.047Z,4.67
2018-08-16T04:50:51.416Z,4.43
2018-08-16T04:53:19.763Z,6.93
2018-08-16T04:55:48.042Z,6.97
2018-08-16T04:58:16.442Z,11.57
2018-08-16T05:00:44.772Z,6.37
2018-08-16T05:03:13.122Z,4.87
2018-08-16T05:05:41.759Z,13.60
2018-08-16T05:08:10.179Z,5.23
2018-08-16T05:13:17.852Z,5.30
2018-08-16T05:15:46.175Z,4.47
2018-08-16T05:18:14.715Z,5.10
2018-08-16T05:20:43.080Z,5.43
2018-08-16T05:23:11.396Z,5.07
2018-08-16T05:25:39.788Z,6.00
2018-08-16T05:28:08.142Z,5.70
2018-08-16T05:30:36.758Z,4.77
2018-08-16T05:33:05.439Z,5.47
2018-08-16T05:35:33.805Z,5.43
2018-08-16T05:38:02.116Z,4.97
2018-08-16T05:40:30.592Z,9.33
2018-08-16T05:42:59.008Z,5.80
2018-08-16T05:45:27.440Z,8.40
2018-08-16T05:47:56.020Z,7.60
2018-08-16T05:50:24.335Z,7.27
2018-08-16T05:52:52.710Z,9.60
2018-08-16T05:55:21.323Z,10.73
2018-08-16T05:57:49.836Z,12.63
2018-08-16T06:00:18.220Z,7.43
2018-08-16T06:02:46.704Z,10.60
2018-08-16T06:05:15.069Z,7.83
2018-08-16T06:07:43.457Z,12.70
2018-08-16T06:10:11.775Z,7.00
2018-08-16T06:12:40.107Z,6.33
2018-08-16T06:15:09.358Z,4.67
2018-08-16T06:17:37.785Z,6.93
2018-08-16T06:20:08.459Z,9.70
2018-08-16T06:22:36.899Z,8.37
2018-08-16T06:25:07.078Z,13.03
2018-08-16T06:27:35.499Z,7.77
2018-08-16T06:30:04.663Z,9.17
2018-08-16T06:32:33.056Z,9.00
2018-08-16T06:35:01.392Z,6.30
2018-08-16T06:37:29.803Z,13.00
2018-08-16T06:39:58.283Z,10.57
2018-08-16T06:42:26.682Z,8.90
2018-08-16T06:44:55.052Z,8.13
2018-08-16T06:47:23.484Z,5.30
2018-08-16T06:49:52.011Z,5.73
2018-08-16T06:52:20.400Z,8.13
2018-08-16T06:54:49.604Z,9.00
2018-08-16T06:57:17.997Z,13.87
2018-08-16T06:59:46.626Z,8.07
2018-08-16T07:02:14.946Z,9.10
2018-08-16T07:04:43.416Z,8.17
2018-08-16T07:07:11.784Z,7.70
2018-08-16T07:09:40.124Z,5.43
2018-08-16T07:12:08.702Z,9.07
2018-08-16T07:14:37.076Z,7.73
2018-08-16T07:17:05.498Z,11.13
2018-08-16T07:19:34.081Z,9.00
2018-08-16T07:22:02.411Z,7.10
2018-08-16T07:24:30.845Z,7.03
2018-08-16T07:26:59.240Z,5.67
2018-08-16T07:29:27.865Z,5.97
2018-08-16T07:31:56.395Z,11.07
2018-08-16T07:34:24.783Z,7.60
2018-08-16T07:36:54.541Z,9.70
2018-08-16T07:39:22.919Z,6.47
2018-08-16T07:41:51.327Z,9.13
2018-08-16T07:44:19.735Z,8.03
2018-08-16T07:46:48.101Z,9.80
2018-08-16T07:49:16.474Z,7.77
2018-08-16T07:51:45.163Z,6.40
2018-08-16T07:54:13.431Z,9.27
2018-08-16T07:56:41.832Z,6.43
2018-08-16T07:59:10.209Z,7.80
2018-08-16T08:01:38.644Z,9.00
2018-08-16T08:04:07.055Z,5.73
2018-08-16T08:06:35.447Z,7.60
2018-08-16T08:09:05.085Z,6.70
2018-08-16T08:11:33.424Z,6.80
2018-08-16T08:14:02.479Z,6.03
2018-08-16T08:16:30.856Z,5.73
2018-08-16T08:18:59.272Z,5.30
2018-08-16T08:21:27.917Z,6.03
2018-08-16T08:23:56.541Z,5.97
2018-08-16T08:26:25.193Z,7.80
2018-08-16T08:28:53.591Z,9.20
2018-08-16T08:31:22.003Z,6.10
2018-08-16T08:33:50.329Z,4.20
2018-08-16T08:36:29.915Z,4.20
2018-08-16T08:38:58.428Z,7.27
2018-08-16T08:41:26.828Z,4.47
2018-08-16T08:44:20.760Z,3.97
2018-08-16T08:46:50.231Z,3.90
2018-08-16T08:49:18.992Z,4.90
2018-08-16T08:51:47.980Z,4.93
2018-08-16T08:54:34.824Z,3.20
2018-08-16T08:57:14.554Z,4.27
2018-08-16T08:59:42.929Z,4.27
2018-08-16T09:02:11.870Z,3.27
2018-08-16T09:04:40.403Z,3.87
2018-08-16T09:07:10.367Z,4.40
2018-08-16T09:09:43.262Z,4.77
2018-08-16T09:12:23.119Z,3.13
2018-08-16T09:15:02.892Z,3.10
2018-08-16T09:17:31.332Z,3.70
2018-08-16T09:19:59.751Z,3.90
2018-08-16T09:22:28.116Z,2.53
2018-08-16T09:24:56.501Z,2.50
2018-08-16T09:27:24.971Z,2.57
2018-08-16T09:30:29.966Z,2.30
2018-08-16T09:33:09.553Z,2.90
2018-08-16T09:35:37.942Z,3.00
2018-08-16T09:38:06.278Z,2.42
2018-08-16T09:40:34.727Z,4.58
2018-08-16T09:43:03.147Z,2.50
2018-08-16T09:46:42.339Z,3.72
2018-08-16T09:49:10.888Z,6.22
2018-08-16T09:51:39.292Z,3.65
2018-08-16T09:54:07.783Z,2.40
2018-08-16T09:56:36.140Z,9.40
2018-08-16T09:59:05.112Z,6.17
2018-08-16T10:01:33.575Z,5.12
2018-08-16T10:04:02.271Z,2.22
2018-08-16T10:06:30.695Z,5.05
2018-08-16T10:08:59.166Z,3.15
2018-08-16T10:11:27.771Z,2.52
2018-08-16T10:13:57.535Z,2.35
2018-08-16T10:16:26.123Z,2.62
2018-08-16T10:18:54.477Z,3.22
2018-08-16T10:21:22.943Z,2.85
2018-08-16T10:23:51.256Z,2.20
2018-08-16T10:26:19.601Z,1.90
2018-08-16T10:28:47.958Z,2.00
2018-08-16T10:31:16.299Z,3.02
2018-08-16T10:33:44.638Z,2.08
2018-08-16T10:36:13.020Z,2.20
2018-08-16T10:38:41.380Z,2.40
2018-08-16T10:41:09.730Z,2.20
2018-08-16T10:43:38.047Z,2.27
2018-08-16T10:46:06.439Z,3.72
2018-08-16T10:48:34.811Z,2.15
2018-08-16T10:51:03.717Z,3.75
2018-08-16T10:53:32.139Z,2.00
2018-08-16T10:56:01.215Z,2.02
2018-08-16T10:58:30.205Z,1.80
2018-08-16T11:00:58.730Z,2.25
2018-08-16T11:03:27.156Z,3.17
2018-08-16T11:05:56.039Z,2.20
2018-08-16T11:08:25.248Z,2.27
2018-08-16T11:10:53.633Z,1.82
2018-08-16T11:13:22.089Z,3.25
2018-08-16T11:15:50.471Z,1.82
2018-08-16T11:18:18.911Z,3.30
2018-08-16T11:20:47.252Z,3.05
2018-08-16T11:23:15.802Z,1.85
2018-08-16T11:25:44.391Z,1.82
2018-08-16T11:28:12.714Z,1.80
2018-08-16T11:30:41.319Z,2.08
2018-08-16T11:33:10.140Z,2.17
2018-08-16T11:35:38.627Z,2.20
2018-08-16T11:38:06.959Z,1.90
2018-08-16T11:40:35.397Z,2.30
2018-08-16T11:43:03.959Z,3.75
2018-08-16T11:45:32.439Z,2.08
2018-08-16T11:48:00.915Z,1.92
2018-08-16T11:50:29.274Z,1.98
2018-08-16T11:52:57.741Z,2.05
2018-08-16T11:55:26.197Z,2.33
2018-08-16T11:57:54.569Z,2.67
2018-08-16T12:00:22.904Z,2.42
2018-08-16T12:02:51.220Z,2.45
2018-08-16T12:05:19.580Z,3.05
2018-08-16T12:07:47.933Z,2.42
2018-08-16T12:10:16.239Z,4.05
2018-08-16T12:12:44.548Z,1.90
2018-08-16T12:15:12.937Z,2.35
2018-08-16T12:17:41.335Z,2.30
2018-08-16T12:20:09.895Z,2.30
2018-08-16T12:22:38.420Z,2.90
2018-08-16T12:25:07.417Z,2.57
2018-08-16T12:27:35.876Z,2.70
2018-08-16T12:30:05.287Z,2.43
2018-08-16T12:32:33.591Z,2.93
2018-08-16T12:35:02.207Z,2.80
2018-08-16T12:37:30.455Z,3.70
2018-08-16T12:39:58.893Z,2.33
2018-08-16T12:42:27.391Z,2.87
2018-08-16T12:44:55.854Z,2.55
2018-08-16T12:47:24.278Z,2.58
2018-08-16T12:49:52.492Z,2.67
2018-08-16T12:52:20.831Z,2.58
2018-08-16T12:54:49.174Z,3.20
2018-08-16T12:57:17.580Z,2.62
2018-08-16T12:59:46.103Z,2.60
2018-08-16T13:02:14.450Z,4.08
2018-08-16T13:04:42.770Z,2.60
2018-08-16T13:07:11.195Z,2.60
2018-08-16T13:09:39.744Z,2.60
2018-08-16T13:12:08.103Z,2.87
2018-08-16T13:14:36.563Z,2.40
2018-08-16T13:17:05.284Z,3.52
2018-08-16T13:19:33.647Z,3.90
2018-08-16T13:22:02.096Z,2.47
2018-08-16T13:24:30.443Z,1.92
2018-08-16T13:26:59.185Z,3.70
2018-08-16T13:29:27.627Z,2.42
2018-08-16T13:31:56.180Z,3.52
2018-08-16T13:34:24.571Z,2.20
2018-08-16T13:36:52.947Z,2.40
2018-08-16T13:39:21.323Z,2.25
2018-08-16T13:41:49.808Z,2.22
2018-08-16T13:44:18.168Z,2.42
2018-08-16T13:46:46.701Z,2.65
2018-08-16T13:49:15.210Z,2.22
2018-08-16T13:51:43.547Z,2.58
2018-08-16T13:54:11.899Z,2.62
2018-08-16T13:56:40.339Z,2.25
2018-08-16T13:59:08.840Z,2.90
2018-08-16T14:01:37.372Z,3.72
2018-08-16T14:04:05.742Z,2.55
2018-08-16T14:06:34.067Z,3.02
2018-08-16T14:09:02.448Z,2.35
2018-08-16T14:11:30.781Z,3.02
2018-08-16T14:13:59.206Z,2.80
2018-08-16T14:16:27.856Z,2.50
2018-08-16T14:18:56.320Z,3.10
2018-08-16T14:21:25.165Z,2.87
2018-08-16T14:23:53.808Z,2.67
2018-08-16T14:26:22.173Z,2.60
2018-08-16T14:28:50.726Z,3.20
2018-08-16T14:31:19.071Z,2.58
2018-08-16T14:33:47.678Z,2.67
2018-08-16T14:36:16.185Z,2.67
2018-08-16T14:38:44.729Z,2.90
2018-08-16T14:41:13.090Z,2.77
2018-08-16T14:43:41.431Z,2.50
2018-08-16T14:46:09.832Z,2.63
2018-08-16T14:48:38.251Z,2.97
2018-08-16T14:51:06.633Z,3.60
2018-08-16T14:53:34.955Z,4.27
2018-08-16T14:56:03.330Z,3.23
2018-08-16T14:58:31.719Z,2.80
2018-08-16T15:01:00.201Z,2.90
2018-08-16T15:03:28.632Z,3.20
2018-08-16T15:05:58.344Z,3.47
2018-08-16T15:08:27.110Z,3.30
2018-08-16T15:10:55.500Z,4.20
2018-08-16T15:13:23.790Z,3.03
2018-08-16T15:15:52.203Z,4.23
2018-08-16T15:18:20.660Z,2.87
2018-08-16T15:20:48.959Z,3.10
2018-08-16T15:23:17.403Z,2.83
2018-08-16T15:25:45.731Z,3.10
2018-08-16T15:28:14.291Z,2.70
2018-08-16T15:30:42.836Z,4.83
2018-08-16T15:33:11.584Z,4.10
2018-08-16T15:35:39.854Z,3.03
2018-08-16T15:38:08.275Z,3.03
2018-08-16T15:40:36.736Z,3.00
2018-08-16T15:43:05.172Z,3.40
2018-08-16T15:45:33.559Z,3.40
2018-08-16T15:48:01.983Z,3.10
2018-08-16T15:50:30.487Z,3.27
2018-08-16T15:52:59.431Z,3.23
2018-08-16T15:55:27.808Z,3.60
2018-08-16T15:57:56.213Z,3.00
2018-08-16T16:00:24.678Z,3.40
2018-08-16T16:02:52.988Z,3.00
2018-08-16T16:05:21.335Z,3.40
2018-08-16T16:07:49.734Z,3.43
2018-08-16T16:10:18.175Z,4.13
2018-08-16T16:12:46.502Z,3.73
2018-08-16T16:15:14.862Z,3.50
2018-08-16T16:17:43.191Z,3.10
2018-08-16T16:20:11.581Z,3.40
2018-08-16T16:22:39.936Z,3.20
2018-08-16T16:25:08.670Z,3.87
2018-08-16T16:27:37.240Z,3.10
2018-08-16T16:30:07.242Z,4.37
2018-08-16T16:32:35.558Z,3.30
2018-08-16T16:35:04.028Z,8.30
2018-08-16T16:37:32.751Z,4.00
2018-08-16T16:40:01.850Z,6.60
2018-08-16T16:42:31.385Z,3.73
2018-08-16T16:44:59.808Z,4.07
2018-08-16T16:47:29.203Z,3.43
2018-08-16T16:49:57.883Z,3.40
2018-08-16T16:52:26.507Z,3.30
2018-08-16T16:54:54.947Z,3.53
2018-08-16T16:57:23.408Z,4.00
2018-08-16T16:59:51.835Z,4.23
2018-08-16T17:02:20.224Z,3.53
2018-08-16T17:04:48.838Z,3.97
2018-08-16T17:07:17.190Z,4.23
2018-08-16T17:09:45.575Z,3.60
2018-08-16T17:12:13.949Z,3.97
2018-08-16T17:14:42.348Z,4.60
2018-08-16T17:17:10.957Z,4.77
2018-08-16T17:19:39.271Z,3.73
2018-08-16T17:22:08.015Z,5.07
2018-08-16T17:24:36.520Z,3.60
2018-08-16T17:27:04.892Z,3.57
2018-08-16T17:29:33.336Z,3.87
2018-08-16T17:32:02.003Z,5.37
2018-08-16T17:34:30.582Z,3.80
2018-08-16T17:36:59.398Z,4.93
2018-08-16T17:39:28.049Z,3.40
2018-08-16T17:41:56.575Z,4.13
2018-08-16T17:44:24.955Z,6.20
2018-08-16T17:46:53.400Z,4.60
2018-08-16T17:49:21.804Z,3.20
2018-08-16T17:51:50.182Z,3.60
2018-08-16T17:54:18.519Z,4.17
2018-08-16T17:56:46.844Z,3.43
2018-08-16T17:59:15.358Z,3.20
2018-08-16T18:01:43.819Z,6.27
2018-08-16T18:04:12.413Z,4.00
2018-08-16T18:06:41.904Z,4.03
2018-08-16T18:09:10.284Z,5.47
2018-08-16T18:11:38.693Z,4.77
2018-08-16T18:14:07.081Z,4.37
2018-08-16T18:16:35.411Z,5.53
2018-08-16T18:19:04.204Z,4.87
2018-08-16T18:21:32.500Z,4.80
2018-08-16T18:24:00.880Z,3.83
2018-08-16T18:26:29.714Z,4.10
2018-08-16T18:28:58.230Z,4.53
2018-08-16T18:31:26.627Z,4.53
2018-08-16T18:33:54.993Z,5.10
2018-08-16T18:36:23.436Z,4.53
2018-08-16T18:38:51.747Z,4.67
2018-08-16T18:41:20.066Z,5.47
2018-08-16T18:43:48.671Z,7.47
2018-08-16T18:46:17.052Z,4.57
2018-08-16T18:48:45.438Z,4.17
2018-08-16T18:51:13.863Z,7.83
2018-08-16T18:53:42.365Z,7.77
2018-08-16T18:56:10.807Z,4.63
2018-08-16T18:58:39.130Z,4.20
2018-08-16T19:01:07.492Z,4.80
2018-08-16T19:03:35.917Z,4.67
2018-08-16T19:06:04.326Z,4.20
2018-08-16T19:08:32.719Z,4.47
2018-08-16T19:11:01.509Z,5.33
2018-08-16T19:13:29.887Z,3.93
2018-08-16T19:15:58.292Z,4.00
2018-08-16T19:18:26.614Z,4.63
2018-08-16T19:20:54.940Z,4.30
2018-08-16T19:23:23.352Z,4.73
2018-08-16T19:25:51.661Z,5.20
2018-08-16T19:28:19.967Z,6.87
2018-08-16T19:30:48.308Z,6.17
2018-08-16T19:33:16.699Z,4.30
2018-08-16T19:35:45.044Z,5.47
2018-08-16T19:38:13.310Z,4.27
2018-08-16T19:40:41.640Z,6.80
2018-08-16T19:43:09.968Z,4.70
2018-08-16T19:45:38.283Z,4.10
2018-08-16T19:48:06.904Z,4.70
2018-08-16T19:50:35.153Z,4.70
2018-08-16T19:53:03.635Z,4.70
2018-08-16T19:55:32.064Z,5.40
2018-08-16T19:58:00.537Z,5.07
2018-08-16T20:00:29.316Z,5.80
2018-08-16T20:02:57.818Z,5.33
2018-08-16T20:05:26.243Z,4.30
2018-08-16T20:07:54.596Z,6.00
2018-08-16T20:10:22.989Z,5.13
2018-08-16T20:12:51.349Z,5.57
2018-08-16T20:15:19.727Z,4.67
2018-08-16T20:17:48.071Z,4.27
2018-08-16T20:20:16.457Z,4.97
2018-08-16T20:22:44.851Z,6.77
2018-08-16T20:25:13.171Z,4.67
2018-08-16T20:27:41.519Z,5.87
2018-08-16T20:30:10.001Z,4.20
2018-08-16T20:32:38.384Z,6.13
2018-08-16T20:35:06.939Z,4.60
2018-08-16T20:37:35.315Z,5.07
2018-08-16T20:40:04.481Z,4.93
2018-08-16T20:42:33.763Z,5.37
2018-08-16T20:45:02.135Z,5.23
2018-08-16T20:47:30.579Z,8.43
2018-08-16T20:49:59.069Z,4.77
2018-08-16T20:52:27.496Z,7.03
2018-08-16T20:54:55.848Z,4.17
2018-08-16T20:57:24.250Z,4.30
2018-08-16T20:59:52.695Z,4.47
2018-08-16T21:02:21.008Z,5.40
2018-08-16T21:04:49.319Z,4.43
2018-08-16T21:07:17.637Z,4.73
2018-08-16T21:09:45.942Z,4.33
2018-08-16T21:12:14.279Z,4.97
2018-08-16T21:14:49.311Z,5.20
2018-08-16T21:17:17.590Z,4.90
2018-08-16T21:19:45.982Z,5.10
2018-08-16T21:22:14.424Z,5.00
2018-08-16T21:24:42.710Z,4.83
2018-08-16T21:27:11.043Z,4.67
2018-08-16T21:29:39.415Z,5.00
2018-08-16T21:32:07.940Z,5.30
2018-08-16T21:34:36.460Z,6.43
2018-08-16T21:37:04.820Z,4.67
2018-08-16T21:39:33.251Z,5.80
2018-08-16T21:42:01.593Z,5.77
2018-08-16T21:44:29.963Z,4.07
2018-08-16T21:46:58.291Z,5.40
2018-08-16T21:49:26.596Z,4.90
2018-08-16T21:51:54.936Z,4.23
2018-08-16T21:54:23.271Z,8.53
2018-08-16T21:56:51.653Z,8.83
2018-08-16T21:59:20.172Z,4.07
2018-08-16T22:01:48.490Z,9.07
2018-08-16T22:04:16.847Z,7.93
2018-08-16T22:06:56.493Z,8.37
2018-08-16T22:09:25.013Z,4.30
2018-08-16T22:11:53.474Z,5.93
2018-08-16T22:14:21.849Z,4.47
2018-08-16T22:16:50.264Z,3.83
2018-08-16T22:19:18.654Z,8.07
2018-08-16T22:21:47.027Z,3.83
2018-08-16T22:24:15.379Z,5.43
2018-08-16T22:26:43.774Z,4.57
2018-08-16T22:29:12.149Z,5.33
2018-08-16T22:31:40.592Z,4.27
2018-08-16T22:34:09.091Z,5.53
2018-08-16T22:36:37.690Z,5.97
2018-08-16T22:39:09.117Z,4.60
2018-08-16T22:41:37.507Z,4.40
2018-08-16T22:44:06.373Z,4.13
2018-08-16T22:46:34.848Z,4.20
2018-08-16T22:49:03.523Z,4.30
2018-08-16T22:51:31.942Z,4.60
2018-08-16T22:54:00.290Z,4.17
2018-08-16T22:56:28.715Z,6.83
2018-08-16T22:58:57.116Z,4.37
2018-08-16T23:01:25.471Z,3.67
2018-08-16T23:03:54.056Z,4.17
2018-08-16T23:06:22.534Z,4.87
2018-08-16T23:08:51.047Z,4.07
2018-08-16T23:11:19.439Z,4.37
2018-08-16T23:13:47.784Z,4.57
2018-08-16T23:16:16.111Z,4.00
2018-08-16T23:18:44.818Z,4.70
2018-08-16T23:21:13.127Z,4.13
2018-08-16T23:23:41.498Z,5.97
2018-08-16T23:26:09.848Z,4.30
2018-08-16T23:28:38.316Z,4.23
2018-08-16T23:31:06.926Z,4.30
2018-08-16T23:33:35.303Z,4.30
2018-08-16T23:36:04.019Z,4.00
2018-08-16T23:38:32.493Z,6.60
2018-08-16T23:41:00.961Z,4.37
2018-08-16T23:43:29.311Z,7.53
2018-08-16T23:45:57.729Z,6.20
2018-08-16T23:48:29.924Z,5.67
2018-08-16T23:50:58.710Z,3.93
2018-08-16T23:53:27.318Z,6.70
2018-08-16T23:55:56.163Z,3.90
2018-08-16T23:58:24.612Z,4.33
